Time;durP1;ratioP1;P1;durP2;ratioP2;P2;SDS_P1;SDS_P2;PMS_P1;PMS_P2;Temp;Humidity;BMP_temperature;BMP_pressure;BME280_temperature;BME280_humidity;BME280_pressure;Samples;Min_cycle;Max_cycle;Signal;HPM_P1;HPM_P2
2020/12/29 00:02:24;;;;;;;4.20;2.50;;;7.80;80.40;;;;;;5003130;28;84633;-78
2020/12/29 00:04:50;;;;;;;5.23;3.00;;;7.80;80.50;;;;;;4985617;28;84419;-78
2020/12/29 00:07:16;;;;;;;4.63;2.20;;;7.80;80.30;;;;;;5002859;28;83280;-77
2020/12/29 00:09:42;;;;;;;3.67;2.07;;;7.80;80.40;;;;;;5003651;28;83441;-78
2020/12/29 00:12:08;;;;;;;2.97;1.90;;;7.90;80.10;;;;;;4985827;28;84700;-78
2020/12/29 00:14:34;;;;;;;4.83;2.67;;;7.90;80.20;;;;;;4987753;28;86493;-79
2020/12/29 00:17:00;;;;;;;5.03;2.73;;;7.90;80.20;;;;;;4985807;28;84002;-78
2020/12/29 00:19:28;;;;;;;4.10;2.20;;;7.90;80.20;;;;;;4971963;28;83477;-78
2020/12/29 00:21:54;;;;;;;3.80;2.20;;;8.00;80.30;;;;;;4984538;28;87172;-78
2020/12/29 00:24:20;;;;;;;4.67;2.60;;;7.90;80.60;;;;;;5005720;28;84543;-78
2020/12/29 00:26:46;;;;;;;5.13;2.70;;;8.00;80.30;;;;;;5008448;28;84645;-78
2020/12/29 00:29:12;;;;;;;5.83;2.63;;;8.00;80.30;;;;;;4973301;28;83506;-77
2020/12/29 00:31:37;;;;;;;4.30;2.10;;;8.00;80.30;;;;;;4990277;28;85212;-79
2020/12/29 00:34:04;;;;;;;5.90;2.83;;;7.90;80.60;;;;;;4991146;28;87507;-78
2020/12/29 00:36:30;;;;;;;6.60;2.30;;;8.00;80.30;;;;;;4989941;28;86532;-77
2020/12/29 00:38:56;;;;;;;4.80;2.40;;;8.00;80.00;;;;;;5008435;28;84400;-78
2020/12/29 00:41:23;;;;;;;4.23;2.40;;;8.10;80.00;;;;;;4990636;28;87843;-78
2020/12/29 00:43:52;;;;;;;5.10;2.50;;;8.10;80.00;;;;;;5009728;28;83689;-78
2020/12/29 00:46:19;;;;;;;4.30;2.40;;;8.10;79.80;;;;;;5009385;28;83160;-78
2020/12/29 00:48:47;;;;;;;7.27;2.10;;;8.20;79.70;;;;;;5009064;28;83528;-78
2020/12/29 00:51:18;;;;;;;3.60;2.27;;;8.20;79.50;;;;;;4990421;28;88196;-77
2020/12/29 00:53:51;;;;;;;4.53;2.70;;;8.20;79.70;;;;;;4975020;28;86313;-78
2020/12/29 00:56:19;;;;;;;4.00;2.23;;;8.10;79.90;;;;;;4972774;28;86410;-78
2020/12/29 00:58:46;;;;;;;3.20;2.50;;;8.20;80.00;;;;;;4988465;28;83667;-78
2020/12/29 01:01:15;;;;;;;5.00;2.37;;;8.20;80.40;;;;;;4988145;28;87937;-77
2020/12/29 01:04:01;;;;;;;3.17;1.93;;;8.20;80.60;;;;;;5006600;28;83839;-78
2020/12/29 01:06:28;;;;;;;2.90;1.90;;;8.20;81.40;;;;;;4988031;28;85597;-78
2020/12/29 01:08:57;;;;;;;4.37;2.37;;;8.10;82.20;;;;;;4989547;28;83858;-78
2020/12/29 01:11:24;;;;;;;3.50;2.17;;;8.00;83.00;;;;;;4989335;28;87711;-78
2020/12/29 01:13:53;;;;;;;4.67;3.33;;;8.00;83.50;;;;;;4988838;28;87658;-78
2020/12/29 01:16:21;;;;;;;6.53;2.30;;;8.00;84.10;;;;;;4987607;28;84844;-78
2020/12/29 01:18:50;;;;;;;5.07;2.50;;;8.10;84.70;;;;;;4989047;28;83628;-78
2020/12/29 01:21:16;;;;;;;2.83;1.87;;;7.90;84.90;;;;;;4988362;28;87362;-77
2020/12/29 01:23:42;;;;;;;2.90;1.83;;;7.90;85.90;;;;;;5007106;28;84951;-79
2020/12/29 01:26:07;;;;;;;3.63;2.00;;;7.90;86.40;;;;;;4988967;28;87278;-78
2020/12/29 01:28:34;;;;;;;3.13;1.80;;;7.80;86.90;;;;;;4987709;28;83849;-78
2020/12/29 01:31:00;;;;;;;2.80;1.80;;;7.90;87.20;;;;;;4988736;28;84394;-78
2020/12/29 01:33:26;;;;;;;3.50;2.30;;;7.80;87.50;;;;;;5005335;28;83597;-78
2020/12/29 01:35:52;;;;;;;4.07;1.80;;;7.80;87.50;;;;;;5006433;28;83417;-78
2020/12/29 01:38:17;;;;;;;4.53;2.50;;;7.70;87.80;;;;;;5007450;28;83454;-77
2020/12/29 01:40:43;;;;;;;3.73;1.87;;;7.80;87.90;;;;;;4989767;28;87551;-78
2020/12/29 01:43:10;;;;;;;3.27;1.90;;;7.80;88.30;;;;;;5005763;28;83978;-78
2020/12/29 01:45:36;;;;;;;3.57;1.70;;;7.80;88.10;;;;;;5006838;28;83528;-78
2020/12/29 01:48:02;;;;;;;2.77;1.93;;;7.80;88.10;;;;;;5007697;28;83251;-78
2020/12/29 01:50:27;;;;;;;2.40;1.70;;;7.80;88.30;;;;;;4988699;28;86597;-78
2020/12/29 01:53:00;;;;;;;2.53;1.73;;;7.80;88.20;;;;;;4989728;28;83650;-78
2020/12/29 01:55:28;;;;;;;3.03;1.80;;;7.90;88.30;;;;;;4972569;28;86010;-78
2020/12/29 01:57:59;;;;;;;3.67;1.90;;;7.80;88.30;;;;;;4984896;28;84034;-78
2020/12/29 02:00:25;;;;;;;7.22;2.30;;;7.80;88.30;;;;;;4988007;28;87424;-78
2020/12/29 02:02:51;;;;;;;3.50;1.70;;;7.80;88.40;;;;;;4987337;28;87004;-78
2020/12/29 02:05:17;;;;;;;3.37;1.77;;;7.80;88.70;;;;;;4987055;28;86371;-77
2020/12/29 02:07:48;;;;;;;3.93;2.10;;;7.80;88.80;;;;;;4970685;28;84285;-78
2020/12/29 02:10:14;;;;;;;2.97;1.90;;;7.70;88.70;;;;;;4988403;28;84935;-78
2020/12/29 02:12:40;;;;;;;4.07;1.70;;;7.70;88.90;;;;;;4986863;28;87588;-78
2020/12/29 02:15:07;;;;;;;2.70;1.60;;;7.70;89.10;;;;;;5004458;28;83347;-78
2020/12/29 02:17:34;;;;;;;3.53;1.47;;;7.70;89.00;;;;;;5003379;28;83539;-78
2020/12/29 02:20:00;;;;;;;4.10;1.60;;;7.80;89.20;;;;;;5006052;28;83082;-78
2020/12/29 02:22:27;;;;;;;2.50;1.90;;;7.70;89.10;;;;;;4987094;28;87701;-77
2020/12/29 02:24:55;;;;;;;2.73;1.40;;;7.80;88.50;;;;;;4990270;28;83091;-78
2020/12/29 02:27:23;;;;;;;2.63;1.37;;;7.80;89.00;;;;;;4976769;28;83478;-77
2020/12/29 02:29:49;;;;;;;3.10;1.83;;;7.70;89.30;;;;;;4989809;28;84018;-78
2020/12/29 02:32:16;;;;;;;4.73;1.90;;;7.80;89.50;;;;;;5005574;28;83560;-78
2020/12/29 02:34:42;;;;;;;3.83;2.00;;;7.80;89.60;;;;;;4986966;28;86208;-78
2020/12/29 02:37:09;;;;;;;3.07;1.97;;;7.80;89.50;;;;;;4987157;28;83154;-78
2020/12/29 02:39:39;;;;;;;3.73;1.97;;;7.80;89.50;;;;;;4986600;28;85196;-78
2020/12/29 02:42:05;;;;;;;2.67;1.97;;;7.80;89.60;;;;;;4989131;28;83809;-78
2020/12/29 02:44:31;;;;;;;3.00;1.83;;;7.80;89.80;;;;;;4985165;28;83673;-78
2020/12/29 02:46:57;;;;;;;4.40;1.90;;;7.80;89.80;;;;;;4979027;28;84997;-78
2020/12/29 02:49:23;;;;;;;2.67;1.60;;;7.80;90.00;;;;;;4994837;28;87934;-78
2020/12/29 02:51:49;;;;;;;4.37;2.30;;;7.80;90.30;;;;;;5003761;28;84353;-78
2020/12/29 02:54:15;;;;;;;2.73;1.70;;;7.80;90.30;;;;;;4984584;28;84475;-78
2020/12/29 02:56:42;;;;;;;4.90;2.23;;;7.70;90.40;;;;;;4984830;28;83685;-78
2020/12/29 02:59:11;;;;;;;2.43;1.53;;;7.70;90.60;;;;;;4985785;28;83317;-78
2020/12/29 03:01:37;;;;;;;5.00;2.10;;;7.70;90.70;;;;;;5002510;28;84569;-78
2020/12/29 03:04:03;;;;;;;3.70;2.03;;;7.70;90.80;;;;;;4984545;28;86999;-78
2020/12/29 03:06:28;;;;;;;2.77;1.33;;;7.70;90.70;;;;;;4984623;28;84525;-78
2020/12/29 03:08:54;;;;;;;4.70;1.70;;;7.70;90.80;;;;;;4984950;28;88482;-78
2020/12/29 03:11:39;;;;;;;2.77;1.30;;;7.70;90.90;;;;;;4987638;28;87612;-77
2020/12/29 03:14:06;;;;;;;3.80;2.37;;;7.60;91.00;;;;;;5007162;28;83646;-78
2020/12/29 03:16:32;;;;;;;4.23;1.50;;;7.60;90.90;;;;;;4988185;28;83422;-78
2020/12/29 03:18:58;;;;;;;4.20;2.20;;;7.60;91.20;;;;;;5006134;28;83668;-77
2020/12/29 03:21:24;;;;;;;3.27;1.70;;;7.60;91.30;;;;;;5006754;28;84326;-76
2020/12/29 03:23:51;;;;;;;9.03;1.97;;;7.50;91.40;;;;;;4989331;28;85123;-77
2020/12/29 03:26:17;;;;;;;2.70;1.67;;;7.50;91.20;;;;;;5006449;28;83453;-77
2020/12/29 03:28:44;;;;;;;3.97;1.63;;;7.50;91.30;;;;;;4989007;28;85071;-77
2020/12/29 03:31:11;;;;;;;3.23;1.60;;;7.50;91.20;;;;;;5008838;28;83633;-78
2020/12/29 03:33:37;;;;;;;3.33;1.30;;;7.50;91.40;;;;;;5005433;28;83672;-78
2020/12/29 03:36:03;;;;;;;2.10;1.30;;;7.50;91.50;;;;;;4987958;28;84271;-78
2020/12/29 03:38:29;;;;;;;3.67;1.73;;;7.50;91.40;;;;;;4986972;28;84332;-78
2020/12/29 03:40:55;;;;;;;2.60;1.57;;;7.50;91.60;;;;;;4987726;28;87217;-78
2020/12/29 03:43:22;;;;;;;2.63;1.37;;;7.50;91.40;;;;;;5004320;28;83339;-78
2020/12/29 03:45:49;;;;;;;4.60;1.60;;;7.40;91.60;;;;;;5005505;28;83437;-78
2020/12/29 03:48:21;;;;;;;3.20;1.70;;;7.40;91.50;;;;;;4990090;28;87962;-78
2020/12/29 03:50:47;;;;;;;2.90;1.60;;;7.40;91.50;;;;;;4987606;28;83559;-78
2020/12/29 03:53:13;;;;;;;3.30;1.60;;;7.40;91.50;;;;;;4986877;28;86139;-78
2020/12/29 03:55:39;;;;;;;2.40;1.40;;;7.50;91.30;;;;;;4987135;28;83491;-78
2020/12/29 03:58:06;;;;;;;2.10;1.23;;;7.50;91.20;;;;;;5006121;28;83980;-78
2020/12/29 04:00:32;;;;;;;3.03;1.60;;;7.40;91.30;;;;;;5004623;28;84106;-78
2020/12/29 04:02:57;;;;;;;2.70;1.87;;;7.40;91.50;;;;;;4989107;28;83097;-78
2020/12/29 04:05:23;;;;;;;4.77;1.70;;;7.50;91.10;;;;;;4987733;28;83431;-77
2020/12/29 04:07:49;;;;;;;2.50;1.57;;;7.50;91.30;;;;;;4989042;28;87758;-78
2020/12/29 04:10:16;;;;;;;3.87;1.63;;;7.50;91.10;;;;;;5005788;28;84240;-78
2020/12/29 04:12:42;;;;;;;3.90;1.53;;;7.40;90.90;;;;;;5005880;28;84835;-78
2020/12/29 04:15:08;;;;;;;3.20;1.60;;;7.40;91.20;;;;;;5006396;28;83411;-78
2020/12/29 04:17:36;;;;;;;2.23;1.47;;;7.40;91.20;;;;;;4990554;28;84122;-78
2020/12/29 04:20:05;;;;;;;4.00;1.80;;;7.40;91.30;;;;;;4989764;28;87091;-78
2020/12/29 04:22:35;;;;;;;2.57;1.80;;;7.40;91.20;;;;;;4970611;28;86615;-78
2020/12/29 04:25:02;;;;;;;4.17;1.60;;;7.40;91.00;;;;;;4987288;28;84043;-78
2020/12/29 04:27:28;;;;;;;2.47;1.47;;;7.40;91.20;;;;;;5004587;28;84139;-78
2020/12/29 04:29:54;;;;;;;2.17;1.23;;;7.40;90.90;;;;;;4987641;28;87341;-78
2020/12/29 04:32:20;;;;;;;2.47;1.40;;;7.40;91.10;;;;;;4987850;28;86396;-78
2020/12/29 04:34:46;;;;;;;2.23;1.43;;;7.40;91.10;;;;;;4986376;28;84379;-78
2020/12/29 04:37:15;;;;;;;3.13;1.70;;;7.40;91.10;;;;;;4990953;28;84633;-78
2020/12/29 04:39:42;;;;;;;2.83;1.47;;;7.30;91.00;;;;;;4969795;28;86525;-78
2020/12/29 04:42:13;;;;;;;3.70;1.70;;;7.30;91.10;;;;;;4987403;28;86815;-78
2020/12/29 04:44:40;;;;;;;1.92;1.35;;;7.30;91.20;;;;;;4986063;28;83425;-78
2020/12/29 04:47:11;;;;;;;2.20;1.53;;;7.30;91.00;;;;;;4986682;28;88149;-78
2020/12/29 04:49:38;;;;;;;3.27;1.50;;;7.30;91.00;;;;;;4986037;28;86754;-78
2020/12/29 04:52:06;;;;;;;2.00;1.50;;;7.30;91.10;;;;;;5004970;28;83304;-78
2020/12/29 04:54:41;;;;;;;3.70;1.93;;;7.30;91.10;;;;;;5003982;28;83482;-78
2020/12/29 04:57:09;;;;;;;2.90;1.77;;;7.40;91.00;;;;;;4986914;28;87682;-78
2020/12/29 04:59:36;;;;;;;3.47;1.97;;;7.40;90.90;;;;;;4986027;28;86708;-78
2020/12/29 05:02:03;;;;;;;3.73;1.97;;;7.40;91.00;;;;;;4987718;28;83333;-78
2020/12/29 05:04:29;;;;;;;4.23;1.97;;;7.40;90.80;;;;;;4985872;28;84822;-78
2020/12/29 05:06:56;;;;;;;4.57;2.13;;;7.40;90.90;;;;;;4987126;28;88446;-78
2020/12/29 05:09:26;;;;;;;3.60;1.80;;;7.30;90.90;;;;;;4987190;28;87870;-76
2020/12/29 05:11:53;;;;;;;2.63;1.70;;;7.40;90.90;;;;;;5005721;28;82999;-78
2020/12/29 05:14:20;;;;;;;4.57;2.00;;;7.30;90.80;;;;;;4986521;28;84060;-78
2020/12/29 05:16:46;;;;;;;3.47;2.00;;;7.40;90.60;;;;;;4985844;28;87785;-78
2020/12/29 05:19:14;;;;;;;3.90;2.00;;;7.30;90.80;;;;;;4988091;28;84341;-78
2020/12/29 05:21:42;;;;;;;4.43;2.30;;;7.30;90.80;;;;;;5004663;28;83861;-78
2020/12/29 05:24:15;;;;;;;4.30;2.17;;;7.30;90.90;;;;;;5004427;28;83535;-78
2020/12/29 05:26:43;;;;;;;3.93;2.03;;;7.30;90.80;;;;;;5005327;28;84451;-79
2020/12/29 05:29:11;;;;;;;4.93;2.10;;;7.30;90.80;;;;;;5005288;28;83403;-78
2020/12/29 05:31:38;;;;;;;3.43;2.03;;;7.30;90.80;;;;;;4988073;28;83850;-78
2020/12/29 05:34:05;;;;;;;8.10;2.27;;;7.40;90.50;;;;;;5004417;28;83525;-78
2020/12/29 05:36:38;;;;;;;1.93;1.60;;;7.30;90.50;;;;;;5003039;28;87707;-78
2020/12/29 05:39:09;;;;;;;4.93;2.23;;;7.30;90.50;;;;;;4971633;28;87470;-78
2020/12/29 05:41:43;;;;;;;4.63;2.30;;;7.40;90.40;;;;;;5004453;28;85050;-78
2020/12/29 05:44:12;;;;;;;4.63;2.30;;;7.40;90.10;;;;;;4970887;28;83669;-78
2020/12/29 05:46:38;;;;;;;5.73;2.60;;;7.40;90.20;;;;;;4986530;28;86946;-78
2020/12/29 05:49:05;;;;;;;4.77;2.43;;;7.30;90.30;;;;;;5005473;28;84063;-78
2020/12/29 05:51:33;;;;;;;6.17;2.50;;;7.30;90.40;;;;;;4988075;28;86458;-77
2020/12/29 05:54:01;;;;;;;4.47;2.83;;;7.40;90.40;;;;;;4991707;28;83267;-78
2020/12/29 05:56:32;;;;;;;6.03;3.03;;;7.40;90.40;;;;;;4975172;28;88217;-78
2020/12/29 05:59:01;;;;;;;5.57;3.50;;;7.40;90.20;;;;;;5002475;28;87791;-78
2020/12/29 06:01:44;;;;;;;6.97;3.30;;;7.40;90.10;;;;;;5003415;28;83418;-78
2020/12/29 06:04:10;;;;;;;5.53;3.70;;;7.40;90.00;;;;;;4985464;28;84381;-78
2020/12/29 06:06:38;;;;;;;6.63;4.40;;;7.50;89.60;;;;;;4985619;28;87344;-78
2020/12/29 06:09:09;;;;;;;11.07;5.20;;;7.50;89.30;;;;;;4985953;28;86706;-78
2020/12/29 06:11:47;;;;;;;11.15;6.05;;;7.50;88.80;;;;;;4969357;28;86764;-78
2020/12/29 06:14:25;;;;;;;11.50;6.10;;;7.50;88.40;;;;;;4986687;28;83329;-78
2020/12/29 06:16:55;;;;;;;10.33;6.77;;;7.50;87.60;;;;;;4987893;28;85177;-78
2020/12/29 06:19:29;;;;;;;12.30;7.60;;;7.50;87.20;;;;;;4987834;28;86472;-77
2020/12/29 06:22:11;;;;;;;12.30;7.57;;;7.50;87.30;;;;;;4988350;28;83314;-78
2020/12/29 06:24:42;;;;;;;12.80;8.52;;;7.50;86.70;;;;;;4987429;28;84588;-78
2020/12/29 06:27:11;;;;;;;11.05;7.97;;;7.40;85.60;;;;;;4987401;28;87496;-78
2020/12/29 06:29:41;;;;;;;19.33;10.73;;;7.40;86.20;;;;;;4985664;28;86205;-78
2020/12/29 06:32:14;;;;;;;15.30;10.33;;;7.30;84.20;;;;;;4984063;28;86853;-78
2020/12/29 06:34:41;;;;;;;14.03;9.67;;;7.30;83.90;;;;;;5002366;28;83546;-78
2020/12/29 06:37:23;;;;;;;15.20;10.63;;;7.20;82.90;;;;;;4989720;28;87854;-78
2020/12/29 06:39:51;;;;;;;;;;;7.20;82.10;;;;;;4985167;28;87704;-78
2020/12/29 06:42:18;;;;;;;14.07;10.00;;;7.20;82.20;;;;;;4987261;28;83330;-78
2020/12/29 06:44:44;;;;;;;15.53;10.70;;;7.10;81.60;;;;;;4985319;28;84351;-78
2020/12/29 06:47:10;;;;;;;15.60;10.83;;;7.10;81.70;;;;;;5005852;28;84049;-78
2020/12/29 06:49:43;;;;;;;14.23;10.47;;;7.10;81.10;;;;;;5005143;28;83588;-78
2020/12/29 06:52:30;;;;;;;13.33;9.10;;;7.10;80.50;;;;;;4987875;28;85826;-78
2020/12/29 06:54:59;;;;;;;12.33;8.83;;;7.00;79.70;;;;;;4971508;28;84836;-78
2020/12/29 06:57:34;;;;;;;12.30;8.87;;;7.00;79.10;;;;;;5006066;28;84998;-77
2020/12/29 07:00:12;;;;;;;13.37;9.40;;;6.90;79.60;;;;;;4987927;28;86947;-78
2020/12/29 07:02:39;;;;;;;14.10;9.97;;;6.90;79.40;;;;;;4987573;28;85388;-78
2020/12/29 07:05:23;;;;;;;16.37;10.30;;;6.90;79.10;;;;;;4970101;28;84372;-78
2020/12/29 07:08:15;;;;;;;13.40;8.90;;;6.80;78.60;;;;;;4986280;28;88736;-78
2020/12/29 07:10:44;;;;;;;10.30;7.95;;;6.80;79.00;;;;;;4983677;28;86018;-78
2020/12/29 07:13:14;;;;;;;12.77;8.83;;;6.80;79.20;;;;;;4987636;28;84431;-78
2020/12/29 07:15:55;;;;;;;13.83;9.30;;;6.80;79.10;;;;;;5004052;28;83470;-78
2020/12/29 07:18:23;;;;;;;12.50;9.57;;;6.80;79.00;;;;;;4999516;28;84138;-79
2020/12/29 07:20:51;;;;;;;13.17;8.87;;;6.80;79.00;;;;;;5005379;28;83195;-78
2020/12/29 07:23:18;;;;;;;14.07;9.10;;;6.80;79.40;;;;;;4987531;28;86201;-78
2020/12/29 07:25:52;;;;;;;13.57;9.20;;;6.80;79.40;;;;;;5005040;28;84256;-78
2020/12/29 07:28:22;;;;;;;13.43;8.50;;;6.90;79.00;;;;;;5004072;28;83574;-78
2020/12/29 07:30:50;;;;;;;19.03;10.17;;;6.90;78.70;;;;;;4984617;28;83950;-78
2020/12/29 07:33:21;;;;;;;16.73;10.47;;;6.90;78.70;;;;;;5003935;28;84034;-79
2020/12/29 07:35:48;;;;;;;19.63;11.45;;;6.90;78.30;;;;;;4980056;28;83729;-78
2020/12/29 07:38:19;;;;;;;15.80;11.67;;;6.90;77.40;;;;;;4968692;28;87780;-78
2020/12/29 07:40:45;;;;;;;16.63;11.13;;;6.90;78.10;;;;;;4984780;28;87853;-78
2020/12/29 07:43:11;;;;;;;15.10;11.03;;;6.90;76.90;;;;;;5003120;28;83328;-78
2020/12/29 07:45:38;;;;;;;16.40;11.00;;;6.90;76.30;;;;;;4983962;28;86734;-78
2020/12/29 07:48:05;;;;;;;14.13;10.93;;;6.90;75.70;;;;;;4998878;28;88313;-78
2020/12/29 07:50:32;;;;;;;14.73;9.67;;;6.90;75.60;;;;;;4984299;28;85848;-78
2020/12/29 07:53:07;;;;;;;13.70;9.50;;;6.90;73.30;;;;;;4968732;28;85188;-78
2020/12/29 07:55:34;;;;;;;13.80;9.20;;;6.90;72.10;;;;;;5000348;28;83756;-77
2020/12/29 07:58:07;;;;;;;12.37;8.30;;;6.90;71.80;;;;;;5001520;28;88031;-78
2020/12/29 08:00:37;;;;;;;11.77;8.67;;;6.80;70.50;;;;;;4982025;28;86854;-79
2020/12/29 08:03:04;;;;;;;11.63;8.60;;;6.80;70.80;;;;;;4980899;28;86607;-78
2020/12/29 08:05:32;;;;;;;11.00;8.17;;;6.90;70.40;;;;;;4985739;28;83389;-78
2020/12/29 08:08:00;;;;;;;10.87;7.20;;;6.90;70.10;;;;;;4984917;28;85964;-78
2020/12/29 08:10:29;;;;;;;10.10;6.90;;;7.00;68.60;;;;;;4982311;28;86465;-76
2020/12/29 08:12:58;;;;;;;10.73;7.70;;;7.00;68.00;;;;;;4982500;28;85640;-79
2020/12/29 08:15:29;;;;;;;30.90;17.87;;;7.00;67.90;;;;;;4962986;28;83535;-77
2020/12/29 08:18:13;;;;;;;13.75;8.75;;;7.10;67.70;;;;;;4999803;28;87526;-77
2020/12/29 08:20:47;;;;;;;10.70;7.57;;;7.20;67.10;;;;;;5001276;28;83876;-77
2020/12/29 08:23:16;;;;;;;14.87;9.00;;;7.20;67.90;;;;;;5001071;28;83474;-78
2020/12/29 08:25:48;;;;;;;22.43;11.70;;;7.30;67.50;;;;;;5006111;28;83462;-77
2020/12/29 08:28:14;;;;;;;15.25;8.98;;;7.40;66.80;;;;;;4987313;28;83955;-77
2020/12/29 08:30:40;;;;;;;23.10;12.97;;;7.40;64.20;;;;;;4981145;28;86931;-77
2020/12/29 08:33:07;;;;;;;30.50;14.67;;;7.40;65.20;;;;;;4987111;28;86189;-78
2020/12/29 08:35:43;;;;;;;17.13;9.80;;;7.50;64.40;;;;;;4986683;28;86826;-77
2020/12/29 08:38:41;;;;;;;22.60;11.60;;;7.60;63.90;;;;;;4988979;28;84562;-78
2020/12/29 08:41:12;;;;;;;12.70;8.60;;;7.70;63.50;;;;;;5004924;28;84520;-78
2020/12/29 08:43:43;;;;;;;10.85;6.43;;;7.70;63.80;;;;;;4991529;28;83431;-78
2020/12/29 08:46:14;;;;;;;12.77;8.30;;;7.90;62.50;;;;;;5013083;28;83363;-78
2020/12/29 08:48:51;;;;;;;12.43;6.57;;;8.10;62.40;;;;;;4995082;28;86107;-78
2020/12/29 08:51:25;;;;;;;11.23;7.17;;;8.30;60.90;;;;;;4996487;28;83636;-77
2020/12/29 08:54:05;;;;;;;11.40;7.10;;;8.40;61.40;;;;;;4995748;28;87469;-77
2020/12/29 08:56:31;;;;;;;14.00;8.50;;;8.50;60.80;;;;;;5005142;28;83526;-78
2020/12/29 08:58:57;;;;;;;12.40;8.77;;;8.40;61.70;;;;;;5006992;28;84623;-77
2020/12/29 09:01:33;;;;;;;13.73;10.10;;;8.50;62.20;;;;;;4972586;28;86506;-78
2020/12/29 09:04:21;;;;;;;17.45;11.55;;;8.50;62.20;;;;;;5003968;28;84120;-78
2020/12/29 09:07:09;;;;;;;16.27;9.90;;;8.50;61.30;;;;;;4981158;28;85829;-78
2020/12/29 09:10:07;;;;;;;18.17;10.20;;;8.40;62.10;;;;;;5001434;28;85204;-78
2020/12/29 09:12:35;;;;;;;16.08;10.15;;;8.40;61.60;;;;;;4980174;28;83595;-78
2020/12/29 09:15:08;;;;;;;26.45;14.10;;;8.40;62.40;;;;;;4999934;28;83895;-78
2020/12/29 09:17:36;;;;;;;15.13;8.73;;;8.40;61.60;;;;;;4983073;28;84057;-79
2020/12/29 09:20:24;;;;;;;12.38;8.93;;;8.30;61.50;;;;;;4985062;28;83991;-78
2020/12/29 09:23:11;;;;;;;11.37;7.93;;;8.30;61.90;;;;;;4998822;28;85088;-79
2020/12/29 09:25:42;;;;;;;10.83;7.77;;;8.20;62.70;;;;;;4986682;28;83381;-78
2020/12/29 09:28:20;;;;;;;10.50;7.47;;;8.30;62.30;;;;;;5005251;28;84325;-78
2020/12/29 09:31:01;;;;;;;10.00;8.00;;;8.20;62.50;;;;;;5000544;28;86039;-78
2020/12/29 09:33:29;;;;;;;10.60;7.20;;;8.20;62.50;;;;;;4986989;28;83272;-77
2020/12/29 09:35:59;;;;;;;12.38;8.60;;;8.20;62.20;;;;;;4984443;28;85069;-77
2020/12/29 09:38:25;;;;;;;14.20;8.90;;;8.30;61.90;;;;;;4968169;28;84275;-77
2020/12/29 09:40:51;;;;;;;10.73;7.60;;;8.30;62.50;;;;;;4985949;28;87262;-78
2020/12/29 09:43:18;;;;;;;17.43;11.37;;;8.30;62.70;;;;;;4988260;28;84275;-78
2020/12/29 09:45:45;;;;;;;18.13;11.82;;;8.30;62.30;;;;;;5004962;28;87219;-77
2020/12/29 09:48:12;;;;;;;20.30;13.00;;;8.50;62.50;;;;;;5005031;28;86934;-79
2020/12/29 09:50:38;;;;;;;14.30;9.47;;;8.60;62.50;;;;;;4990170;28;87583;-77
2020/12/29 09:53:04;;;;;;;18.60;11.63;;;8.80;61.40;;;;;;5008923;28;84144;-78
2020/12/29 09:55:30;;;;;;;15.52;10.45;;;9.00;61.30;;;;;;4999937;28;86545;-77
2020/12/29 09:57:56;;;;;;;14.20;9.98;;;9.10;61.00;;;;;;4993727;28;86860;-77
2020/12/29 10:00:22;;;;;;;14.95;9.75;;;9.30;59.50;;;;;;4971684;28;86035;-78
2020/12/29 10:02:49;;;;;;;18.05;10.77;;;9.30;60.10;;;;;;4991601;28;84320;-78
2020/12/29 10:05:16;;;;;;;16.08;8.50;;;9.30;59.60;;;;;;5008834;28;87622;-78
2020/12/29 10:07:44;;;;;;;22.80;12.73;;;9.30;60.20;;;;;;5013074;28;83777;-78
2020/12/29 10:10:10;;;;;;;16.75;8.88;;;9.50;59.10;;;;;;4976759;28;87487;-78
2020/12/29 10:12:36;;;;;;;23.15;11.65;;;9.60;58.50;;;;;;4991409;28;83374;-78
2020/12/29 10:15:03;;;;;;;23.02;13.18;;;9.70;58.70;;;;;;4990396;28;83250;-78
2020/12/29 10:17:30;;;;;;;16.33;9.32;;;9.90;58.80;;;;;;4989234;28;86841;-78
2020/12/29 10:19:56;;;;;;;15.63;9.32;;;10.00;57.50;;;;;;4989145;28;87895;-78
2020/12/29 10:22:22;;;;;;;21.05;11.82;;;10.10;56.20;;;;;;4990370;28;83790;-77
2020/12/29 10:24:48;;;;;;;11.15;7.45;;;10.00;56.60;;;;;;4989776;28;85853;-78
2020/12/29 10:27:14;;;;;;;9.93;6.88;;;9.90;57.00;;;;;;4991203;28;83649;-78
2020/12/29 10:29:55;;;;;;;11.07;7.20;;;9.80;56.90;;;;;;5076253;27;83920;-79
2020/12/29 10:32:21;;;;;;;8.48;5.90;;;9.80;57.70;;;;;;5048047;27;83946;-80
2020/12/29 10:34:48;;;;;;;9.95;6.43;;;9.70;57.60;;;;;;5056041;27;83476;-80
2020/12/29 10:37:15;;;;;;;17.40;9.80;;;9.80;57.80;;;;;;5020281;27;86917;-81
2020/12/29 10:39:41;;;;;;;12.90;7.35;;;9.90;57.10;;;;;;5031678;28;87890;-80
2020/12/29 10:42:07;;;;;;;8.18;5.28;;;9.80;55.90;;;;;;5051178;27;83076;-79
2020/12/29 10:44:32;;;;;;;6.10;4.50;;;9.70;54.40;;;;;;5029252;28;84124;-79
2020/12/29 10:46:58;;;;;;;6.90;5.00;;;9.60;54.40;;;;;;5031081;28;86156;-79
2020/12/29 10:49:24;;;;;;;6.68;4.72;;;9.50;55.40;;;;;;5026970;28;85505;-79
2020/12/29 10:51:50;;;;;;;8.35;5.10;;;9.60;55.30;;;;;;5034829;27;83387;-79
2020/12/29 10:54:17;;;;;;;13.73;8.45;;;9.70;55.40;;;;;;5026700;28;83361;-79
2020/12/29 10:56:43;;;;;;;12.50;7.10;;;9.80;54.90;;;;;;5047897;27;84244;-79
2020/12/29 10:59:09;;;;;;;10.05;6.60;;;9.90;55.20;;;;;;5045041;28;83311;-79
2020/12/29 11:01:34;;;;;;;9.68;5.57;;;9.90;55.20;;;;;;5048270;27;84367;-78
2020/12/29 11:04:00;;;;;;;37.60;18.88;;;9.80;54.20;;;;;;5045789;27;83550;-78
2020/12/29 11:06:26;;;;;;;16.73;10.75;;;9.80;54.70;;;;;;5019773;28;86774;-77
2020/12/29 11:08:52;;;;;;;13.13;8.05;;;9.70;54.80;;;;;;5025311;27;86933;-78
2020/12/29 11:11:19;;;;;;;14.70;8.15;;;9.70;55.20;;;;;;5049921;27;83226;-78
2020/12/29 11:13:46;;;;;;;13.50;7.72;;;9.70;54.80;;;;;;5041163;27;84647;-82
2020/12/29 11:16:19;;;;;;;7.93;5.32;;;9.50;54.40;;;;;;5061189;27;85715;-77
2020/12/29 11:18:46;;;;;;;7.15;4.80;;;9.30;55.30;;;;;;5054244;27;86360;-80
2020/12/29 11:21:16;;;;;;;7.95;4.53;;;9.10;55.60;;;;;;5055935;27;83611;-79
2020/12/29 11:23:42;;;;;;;6.38;4.80;;;8.90;56.80;;;;;;5044806;27;83250;-79
2020/12/29 11:26:09;;;;;;;5.65;4.38;;;8.90;56.90;;;;;;5048523;27;87588;-79
2020/12/29 11:28:35;;;;;;;7.50;4.65;;;8.80;56.30;;;;;;5031752;27;85333;-78
2020/12/29 11:31:00;;;;;;;5.78;4.32;;;8.70;56.90;;;;;;5026260;27;84582;-77
2020/12/29 11:33:27;;;;;;;8.52;4.07;;;8.60;57.00;;;;;;5038088;27;84022;-77
2020/12/29 11:35:53;;;;;;;9.80;4.17;;;8.60;56.40;;;;;;5046210;27;86006;-78
2020/12/29 11:38:22;;;;;;;8.18;3.60;;;8.60;56.80;;;;;;5028157;27;87350;-78
2020/12/29 11:40:50;;;;;;;7.80;3.67;;;8.50;56.30;;;;;;5031164;27;83286;-77
2020/12/29 11:43:16;;;;;;;6.57;3.92;;;8.40;57.00;;;;;;5023038;28;84928;-78
2020/12/29 11:45:43;;;;;;;5.40;3.42;;;8.30;57.60;;;;;;5004894;28;86348;-78
2020/12/29 11:48:10;;;;;;;6.97;3.93;;;8.40;57.80;;;;;;5023026;28;84171;-78
2020/12/29 11:50:37;;;;;;;6.83;3.90;;;8.30;57.90;;;;;;5007071;28;84213;-78
2020/12/29 11:53:04;;;;;;;7.93;5.40;;;8.40;58.40;;;;;;5024037;28;83954;-77
2020/12/29 11:55:31;;;;;;;8.43;3.90;;;8.40;58.10;;;;;;5022958;28;84759;-78
2020/12/29 11:57:58;;;;;;;10.00;5.00;;;8.50;57.80;;;;;;5016482;28;84465;-78
2020/12/29 12:00:24;;;;;;;5.50;3.33;;;8.50;58.00;;;;;;5013267;28;83410;-78
2020/12/29 12:02:50;;;;;;;7.37;3.40;;;8.50;58.30;;;;;;5009484;28;83245;-78
2020/12/29 12:05:15;;;;;;;7.63;3.90;;;8.50;58.40;;;;;;5023540;28;84550;-78
2020/12/29 12:07:41;;;;;;;6.70;3.60;;;8.60;59.10;;;;;;5022026;28;83320;-77
2020/12/29 12:10:08;;;;;;;8.98;3.50;;;8.60;59.20;;;;;;5002815;28;83672;-78
2020/12/29 12:12:36;;;;;;;6.10;3.47;;;8.60;59.20;;;;;;5002629;28;84137;-76
2020/12/29 12:15:03;;;;;;;6.93;3.78;;;8.80;59.60;;;;;;5023877;28;86616;-77
2020/12/29 12:17:29;;;;;;;6.88;2.85;;;9.00;60.00;;;;;;5025318;28;83430;-78
2020/12/29 12:19:55;;;;;;;5.68;2.80;;;9.20;58.90;;;;;;5025506;28;83397;-76
2020/12/29 12:22:21;;;;;;;5.13;2.70;;;9.40;60.50;;;;;;5009433;28;83957;-76
2020/12/29 12:24:47;;;;;;;4.35;2.35;;;9.60;57.20;;;;;;5003143;28;86370;-77
2020/12/29 12:27:13;;;;;;;5.13;3.05;;;9.80;56.30;;;;;;5008400;28;87639;-76
2020/12/29 12:29:38;;;;;;;9.02;2.83;;;9.90;55.90;;;;;;5001617;28;83383;-77
2020/12/29 12:32:04;;;;;;;8.07;3.22;;;9.90;55.20;;;;;;5023957;28;83525;-76
2020/12/29 12:34:30;;;;;;;8.43;4.90;;;9.90;54.70;;;;;;5023652;28;87835;-76
2020/12/29 12:36:56;;;;;;;7.10;2.85;;;9.90;54.50;;;;;;5025672;28;84559;-76
2020/12/29 12:39:22;;;;;;;4.82;2.47;;;9.90;53.00;;;;;;5029171;28;83139;-77
2020/12/29 12:41:47;;;;;;;7.78;2.47;;;9.80;52.30;;;;;;5025834;28;83563;-77
2020/12/29 12:44:13;;;;;;;6.32;2.67;;;9.70;52.90;;;;;;5015168;28;87150;-78
2020/12/29 12:46:40;;;;;;;4.53;2.25;;;9.70;52.70;;;;;;5029344;28;83980;-78
2020/12/29 12:49:06;;;;;;;5.68;2.63;;;9.60;53.00;;;;;;5035709;28;83267;-82
2020/12/29 12:51:32;;;;;;;8.43;2.47;;;9.50;53.10;;;;;;5021704;28;83373;-80
2020/12/29 12:53:58;;;;;;;4.88;2.40;;;9.50;53.50;;;;;;5029632;28;88750;-78
2020/12/29 12:56:24;;;;;;;6.03;2.45;;;9.50;53.00;;;;;;5012283;28;85793;-78
2020/12/29 12:58:49;;;;;;;4.93;2.55;;;9.50;53.00;;;;;;5007017;28;83711;-78
2020/12/29 13:01:18;;;;;;;5.97;2.70;;;9.40;53.00;;;;;;5004121;28;84089;-78